Latest Weather Observations for Hamilton

IDV60801

Issued at 10:35 am EST Thursday 17 April 2014 (issued every 30 minutes, with the page automatically refreshed every 10 minutes)

About weather observations | Map of weather stations | Latest weather observations for VIC | Other Formats
Station Details ID: 090173 Name: HAMILTON AIRPORT Lat: -37.65 Lon: 142.06 Height: 241.1 m
Data from the previous 72 hours. | See also: Recent months at Hamilton
Date/Time
EST
Temp
°C
App
Temp
°C
Dew
Point
Rel
Hum
%
Delta-T
°C
Wind Press
QNH
hPa
Press
MSL
hPa
Rain
since 9 am
mm
Dir
 
Spd
km/h
Gust
km/h
Spd
kts
Gust
kts
17/10:30am 17.7 15.0 8.8 56 4.6 NW 13 17 7 9 1021.1 - 0.0
17/10:00am 16.8 14.4 10.2 65 3.5 NNW 13 17 7 9 1021.3 - 0.0
17/09:30am 15.4 14.0 12.3 82 1.7 N 11 13 6 7 1021.3 - 0.0
17/09:00am 12.5 11.4 12.0 97 0.3 N 9 9 5 5 1021.3 1021.1 0.2
17/08:30am 10.6 9.4 10.4 99 0.1 N 7 9 4 5 1021.1 - 0.2
17/08:00am 9.0 7.4 8.9 99 0.0 N 7 9 4 5 1021.0 - 0.2
17/07:31am 6.3 4.1 6.0 98 0.1 N 7 9 4 5 1020.6 - 0.2
17/07:30am 6.3 4.1 6.0 98 0.1 N 7 9 4 5 1020.6 - 0.2
17/07:06am 6.5 4.3 6.2 98 0.1 NNW 7 9 4 5 1020.4 - 0.2
17/07:00am 5.9 3.6 5.6 98 0.1 NNW 7 9 4 5 1020.4 - 0.2
17/06:30am 6.3 4.0 5.9 97 0.2 N 7 9 4 5 1020.3 - 0.2
17/06:12am 6.5 4.3 6.2 98 0.1 N 7 9 4 5 1020.1 - 0.2
17/06:11am 6.4 4.2 6.1 98 0.1 N 7 9 4 5 1020.1 - 0.2
17/06:00am 6.2 4.1 5.8 97 0.2 NNW 6 7 3 4 1020.0 1019.7 0.2
17/05:37am 6.7 4.7 6.3 97 0.2 N 6 7 3 4 1019.8 - 0.2
17/05:30am 6.5 4.3 6.1 97 0.2 N 7 9 4 5 1019.8 - 0.2
17/05:02am 6.5 3.9 6.1 97 0.2 NNE 9 11 5 6 1019.8 - 0.2
17/05:00am 6.9 4.4 6.5 97 0.2 NNE 9 11 5 6 1019.8 - 0.2
17/04:30am 6.7 4.5 6.3 97 0.2 N 7 7 4 4 1019.6 - 0.2
17/04:00am 7.1 5.0 6.7 97 0.2 N 7 9 4 5 1019.4 - 0.2
17/03:30am 8.1 7.6 7.7 97 0.2 CALM 0 2 0 1 1019.4 - 0.2
17/03:00am 7.4 6.7 6.8 96 0.3 CALM 0 0 0 0 1019.5 1019.3 0.2
17/02:42am 7.8 7.2 7.2 96 0.3 CALM 0 0 0 0 1019.6 - 0.2
17/02:30am 9.8 9.3 9.3 97 0.3 ENE 2 6 1 3 1019.6 - 0.2
17/02:00am 9.4 8.0 8.8 96 0.3 E 6 7 3 4 1019.6 - 0.2
17/01:40am 8.8 7.2 8.0 95 0.4 E 6 7 3 4 1019.8 - 0.2
17/01:30am 10.0 8.6 9.4 96 0.3 E 7 11 4 6 1019.8 - 0.2
17/01:00am 10.5 8.8 9.9 96 0.3 ENE 9 11 5 6 1019.6 - 0.2
17/12:30am 9.9 7.3 9.3 96 0.3 E 13 13 7 7 1019.8 - 0.2
17/12:00am 9.8 7.9 9.0 95 0.4 E 9 11 5 6 1020.0 1019.7 0.2
 
Date/Time
EST
Temp
°C
App
Temp
°C
Dew
Point
Rel
Hum
%
Delta-T
°C
Wind Press
QNH
hPa
Press
MSL
hPa
Rain
since 9 am
mm
Dir
 
Spd
km/h
Gust
km/h
Spd
kts
Gust
kts
16/11:30pm 9.8 7.9 9.0 95 0.4 E 9 11 5 6 1020.2 - 0.2
16/11:28pm 9.5 7.5 8.7 95 0.4 E 9 11 5 6 1020.2 - 0.2
16/11:09pm 9.4 7.3 8.3 93 0.5 ESE 9 13 5 7 1020.4 - 0.2
16/11:00pm 11.1 9.9 10.3 95 0.4 ESE 7 7 4 4 1020.3 - 0.2
16/10:30pm 11.4 10.8 10.3 93 0.6 SSE 4 7 2 4 1020.3 - 0.2
16/10:00pm 11.7 10.8 10.6 93 0.6 S 6 7 3 4 1020.4 - 0.2
16/09:30pm 11.8 10.3 10.4 91 0.7 S 9 9 5 5 1020.4 - 0.2
16/09:00pm 12.7 11.3 10.9 89 1.0 SSE 9 13 5 7 1020.3 1020.1 0.2
16/08:30pm 13.1 11.7 11.0 87 1.1 S 9 11 5 6 1020.0 - 0.2
16/08:00pm 13.5 12.2 11.4 87 1.1 SE 9 11 5 6 1019.6 - 0.2
16/07:30pm 14.0 12.8 11.5 85 1.4 SE 9 15 5 8 1019.8 - 0.2
16/07:00pm 14.5 13.2 11.3 81 1.7 ESE 9 13 5 7 1019.5 - 0.0
16/06:30pm 15.5 13.7 10.9 74 2.5 S 11 15 6 8 1019.9 - 0.0
16/06:00pm 16.7 13.8 9.6 63 3.7 SSW 15 19 8 10 1019.5 1019.3 0.0
16/05:30pm 17.9 14.2 7.9 52 5.2 WSW 17 24 9 13 1019.3 - 0.0
16/05:00pm 18.7 14.0 7.8 49 5.6 W 22 30 12 16 1019.1 - 0.0
16/04:30pm 20.4 15.7 7.7 44 6.6 WSW 22 32 12 17 1018.8 - 0.0
16/04:00pm 20.1 15.8 6.8 42 6.8 W 19 26 10 14 1018.7 - 0.0
16/03:30pm 21.1 17.3 7.7 42 7.0 W 17 24 9 13 1018.6 - 0.0
16/03:00pm 19.7 15.7 8.1 47 6.1 WNW 19 26 10 14 1018.8 1018.6 0.0
16/02:30pm 20.5 17.5 7.8 44 6.6 WNW 13 19 7 10 1018.6 - 0.0
16/02:00pm 19.3 15.1 8.3 49 5.8 NW 20 30 11 16 1018.6 - 0.0
16/01:30pm 21.3 16.5 8.9 45 6.6 NW 24 32 13 17 1018.9 - 0.0
16/01:00pm 20.0 15.4 8.0 46 6.3 NW 22 33 12 18 1019.1 - 0.0
16/12:30pm 20.7 16.4 8.0 44 6.7 NW 20 28 11 15 1019.3 - 0.0
16/12:00pm 18.9 15.7 8.6 51 5.4 NW 15 24 8 13 1019.8 1019.5 0.0
16/11:30am 18.8 15.4 9.0 53 5.2 N 17 24 9 13 1020.0 - 0.0
16/11:00am 18.0 15.0 9.4 57 4.6 NNW 15 24 8 13 1020.3 - 0.0
16/10:30am 16.6 14.0 9.3 62 3.8 N 13 19 7 10 1020.5 - 0.0
16/10:00am 15.4 13.9 10.6 73 2.6 N 9 13 5 7 1020.9 - 0.0
16/09:30am 13.2 11.7 10.6 84 1.4 N 9 11 5 6 1021.0 - 0.0
16/09:00am 11.7 10.1 10.3 91 0.7 N 9 11 5 6 1021.3 1021.1 0.0
16/08:30am 10.2 8.9 9.3 94 0.5 NE 6 7 3 4 1021.1 - 0.0
16/08:00am 10.0 8.7 9.1 94 0.5 NNE 6 7 3 4 1021.0 - 0.0
16/07:30am 9.2 7.6 8.1 93 0.5 N 6 7 3 4 1020.9 - 0.0
16/07:00am 8.9 7.0 7.7 92 0.6 NE 7 9 4 5 1020.7 - 0.0
16/06:30am 10.0 7.3 8.8 92 0.6 ENE 13 15 7 8 1020.5 - 0.0
16/06:00am 10.2 6.8 9.3 94 0.5 ENE 17 19 9 10 1020.1 1019.8 0.0
16/05:30am 9.7 6.2 8.9 95 0.4 ENE 17 19 9 10 1020.4 - 0.0
16/05:00am 9.5 6.0 8.9 96 0.3 ENE 17 19 9 10 1020.5 - 0.0
16/04:30am 9.2 6.4 8.6 96 0.3 ENE 13 17 7 9 1020.9 - 0.0
16/04:00am 9.8 6.4 9.3 97 0.3 ENE 17 20 9 11 1020.8 - 0.0
16/03:30am 7.6 4.4 7.0 96 0.3 E 13 15 7 8 1021.1 - 0.0
16/03:00am 7.2 3.9 6.6 96 0.3 E 13 15 7 8 1021.4 1021.2 0.0
16/02:30am 7.4 4.6 6.8 96 0.3 SE 11 11 6 6 1021.7 - 0.0
16/02:00am 7.5 4.3 6.8 95 0.3 ESE 13 15 7 8 1021.9 - 0.0
16/01:30am 8.5 4.7 7.6 94 0.4 E 17 20 9 11 1021.8 - 0.0
16/01:00am 9.3 5.8 8.7 96 0.3 E 17 20 9 11 1021.9 - 0.0
16/12:30am 9.2 5.7 8.6 96 0.3 E 17 20 9 11 1022.1 - 0.0
16/12:00am 9.2 6.0 8.6 96 0.3 E 15 19 8 10 1022.2 1022.0 0.0
 
Date/Time
EST
Temp
°C
App
Temp
°C
Dew
Point
Rel
Hum
%
Delta-T
°C
Wind Press
QNH
hPa
Press
MSL
hPa
Rain
since 9 am
mm
Dir
 
Spd
km/h
Gust
km/h
Spd
kts
Gust
kts
15/11:30pm 8.8 5.5 8.0 95 0.4 ESE 15 19 8 10 1022.6 - 0.0
15/11:00pm 9.0 5.7 8.2 95 0.4 SE 15 17 8 9 1023.1 - 0.0
15/10:30pm 9.5 6.0 8.6 94 0.4 SE 17 19 9 10 1023.2 - 0.0
15/10:00pm 9.6 6.0 8.5 93 0.5 ESE 17 20 9 11 1023.2 - 0.0
15/09:30pm 10.0 6.9 8.8 92 0.6 SE 15 17 8 9 1023.4 - 0.0
15/09:00pm 10.4 7.3 9.0 91 0.7 SE 15 19 8 10 1023.3 1023.1 0.0
15/08:30pm 11.4 7.8 9.7 89 0.9 SSE 19 22 10 12 1023.3 - 0.0
15/08:00pm 11.8 8.2 9.7 87 1.1 SE 19 22 10 12 1023.3 - 0.0
15/07:30pm 12.6 8.5 10.0 84 1.4 SSE 22 28 12 15 1023.3 - 0.0
15/07:00pm 13.1 8.9 9.9 81 1.7 SSE 22 30 12 16 1023.0 - 0.0
15/06:30pm 13.9 10.3 9.9 77 2.1 SSE 19 24 10 13 1022.6 - 0.0
15/06:00pm 14.8 11.7 10.2 74 2.4 SSE 17 22 9 12 1022.6 1022.4 0.0
15/05:30pm 15.7 12.1 10.7 72 2.7 S 20 24 11 13 1022.2 - 0.0
15/05:00pm 16.8 12.8 10.6 67 3.3 SSE 22 28 12 15 1021.9 - 0.0
15/04:30pm 18.8 15.8 10.6 59 4.5 S 17 22 9 12 1021.9 - 0.0
15/04:00pm 17.9 14.2 10.0 60 4.2 SSE 20 28 11 15 1021.9 - 0.0
15/03:30pm 18.2 15.0 9.8 58 4.5 SSE 17 24 9 13 1021.9 - 0.0
15/03:00pm 18.1 14.4 9.5 57 4.6 SE 19 26 10 14 1022.1 1021.9 0.0
15/02:30pm 19.1 16.6 10.9 59 4.5 E 15 24 8 13 1022.2 - 0.0
15/02:00pm 18.1 15.2 9.7 58 4.5 SE 15 24 8 13 1022.4 - 0.0
15/01:30pm 17.9 15.1 10.0 60 4.2 SE 15 22 8 12 1022.9 - 0.0
15/01:00pm 19.4 16.2 9.9 54 5.1 E 17 24 9 13 1023.1 - 0.0
15/12:30pm 17.7 13.8 9.6 59 4.3 E 20 26 11 14 1023.6 - 0.0
15/12:00pm 16.8 13.8 10.6 67 3.3 SE 17 22 9 12 1024.2 1024.0 0.0
15/11:30am 17.3 14.4 11.1 67 3.4 SE 17 28 9 15 1024.6 - 0.0
15/11:07am 15.2 11.6 10.6 74 2.5 SE 20 28 11 15 1024.9 - 0.0
15/11:00am 16.4 13.1 11.6 73 2.6 SE 20 26 11 14 1024.8 - 0.0
15/10:30am 13.7 10.9 13.1 96 0.3 SE 20 24 11 13 1025.0 - 0.0
15/10:00am 13.2 10.5 13.0 99 0.1 SE 19 24 10 13 1025.0 - 0.0
15/09:30am 12.5 10.0 12.3 99 0.1 SE 17 20 9 11 1025.2 - 0.0
15/09:03am 12.2 10.4 12.0 99 0.1 SE 13 20 7 11 1025.1 - 0.0
15/09:00am 12.2 10.4 12.0 99 0.1 SE 13 17 7 9 1025.1 1024.9 0.2
15/08:30am 11.3 9.2 11.1 99 0.1 SE 13 17 7 9 1025.2 - 0.2
15/08:00am 10.6 8.3 10.4 99 0.1 ESE 13 17 7 9 1024.9 - 0.2
15/07:30am 10.0 6.8 9.9 99 0.1 ESE 17 20 9 11 1024.7 - 0.2
15/07:00am 9.8 7.7 9.7 99 0.1 SE 11 13 6 7 1024.4 - 0.2
15/06:30am 10.3 8.7 10.1 99 0.1 SSE 9 11 5 6 1024.2 - 0.2
15/06:00am 10.7 8.4 10.5 99 0.1 SSE 13 17 7 9 1024.2 1024.0 0.2
15/05:30am 10.3 7.5 10.1 99 0.1 SSE 15 20 8 11 1024.0 - 0.2
15/05:00am 9.5 7.3 9.2 98 0.2 SE 11 15 6 8 1023.9 - 0.2
15/04:51am 9.9 7.4 9.6 98 0.2 SE 13 17 7 9 1023.8 - 0.2
15/04:37am 10.3 7.9 10.1 99 0.1 SSE 13 15 7 8 1023.8 - 0.2
15/04:35am 10.3 8.3 10.1 99 0.1 SE 11 15 6 8 1023.8 - 0.2
15/04:30am 10.3 8.3 10.1 99 0.1 SE 11 17 6 9 1023.8 - 0.2
15/04:24am 10.2 7.8 10.0 99 0.1 SE 13 17 7 9 1023.8 - 0.2
15/04:00am 9.8 7.6 9.5 98 0.2 SE 11 13 6 7 1023.8 - 0.0
15/03:30am 9.9 7.8 9.6 98 0.2 SE 11 13 6 7 1023.7 - 0.0
15/03:00am 10.5 8.5 10.2 98 0.2 SE 11 15 6 8 1023.8 1023.7 0.0
15/02:30am 8.8 6.3 8.4 97 0.2 SE 11 15 6 8 1024.0 - 0.0
15/02:18am 9.2 6.5 8.9 98 0.1 SE 13 15 7 8 1024.0 - 0.0
15/02:08am 9.5 6.9 9.2 98 0.2 SE 13 15 7 8 1024.0 - 0.0
15/02:00am 9.8 6.9 9.5 98 0.2 SE 15 19 8 10 1024.0 - 0.0
15/01:51am 9.9 7.0 9.6 98 0.2 SE 15 19 8 10 1024.0 - 0.0
15/01:30am 8.7 6.2 8.3 97 0.2 SE 11 13 6 7 1024.3 - 0.0
15/01:00am 9.3 6.9 8.8 97 0.2 SE 11 13 6 7 1024.3 - 0.0
15/12:30am 9.6 6.9 9.1 97 0.2 SE 13 15 7 8 1024.3 - 0.0
15/12:22am 9.5 6.8 9.0 97 0.2 SE 13 15 7 8 1024.3 - 0.0
15/12:12am 9.6 6.9 9.1 97 0.2 SE 13 13 7 7 1024.3 - 0.0
15/12:00am 9.7 7.0 9.1 96 0.3 SE 13 15 7 8 1024.3 1024.1 0.0
 
Date/Time
EST
Temp
°C
App
Temp
°C
Dew
Point
Rel
Hum
%
Delta-T
°C
Wind Press
QNH
hPa
Press
MSL
hPa
Rain
since 9 am
mm
Dir
 
Spd
km/h
Gust
km/h
Spd
kts
Gust
kts
14/11:30pm 10.4 7.5 9.8 96 0.3 SE 15 17 8 9 1024.4 - 0.0
14/11:00pm 10.9 8.2 10.3 96 0.3 SE 15 19 8 10 1024.5 - 0.0
14/10:30pm 10.6 8.1 9.8 95 0.4 SE 13 17 7 9 1024.7 - 0.0
14/10:00pm 11.3 8.6 10.4 94 0.5 SSE 15 19 8 10 1024.8 - 0.0
14/09:30pm 11.6 8.6 10.5 93 0.6 SSE 17 20 9 11 1024.8 - 0.0
14/09:00pm 11.8 8.7 10.4 91 0.7 SSE 17 22 9 12 1024.8 1024.6 0.0
14/08:30pm 12.0 8.5 10.1 88 1.0 SSE 19 24 10 13 1024.6 - 0.0
14/08:00pm 12.5 8.7 9.9 84 1.3 SSE 20 28 11 15 1024.4 - 0.0
14/07:30pm 13.0 8.7 9.3 78 1.9 SSE 22 30 12 16 1024.2 - 0.0
14/07:00pm 13.7 9.6 8.5 71 2.6 SSE 20 30 11 16 1023.9 - 0.0
14/06:30pm 14.8 9.9 8.5 66 3.2 SSE 24 30 13 16 1023.5 - 0.0
14/06:00pm 16.1 11.3 8.8 62 3.8 SSE 24 32 13 17 1023.1 1022.9 0.0
14/05:30pm 16.8 11.2 8.8 59 4.2 SSE 28 35 15 19 1023.0 - 0.0
14/05:00pm 17.3 13.0 9.2 59 4.3 SSE 22 32 12 17 1022.8 - 0.0
14/04:30pm 17.7 12.1 8.6 55 4.7 SE 28 39 15 21 1022.7 - 0.0
14/04:00pm 17.8 12.4 8.1 53 5.0 SE 26 35 14 19 1022.7 - 0.0
14/03:30pm 17.9 12.3 7.3 50 5.4 SE 26 37 14 20 1022.7 - 0.0
14/03:00pm 19.6 13.7 7.7 46 6.1 SE 28 33 15 18 1022.6 1022.4 0.0
14/02:30pm 19.0 13.4 7.1 46 6.1 SSE 26 35 14 19 1022.5 - 0.0
14/02:00pm 18.4 13.2 7.2 48 5.7 SE 24 39 13 21 1022.6 - 0.0
14/01:30pm 18.7 12.7 6.9 46 6.0 SE 28 35 15 19 1022.9 - 0.0
14/01:00pm 19.1 13.1 7.2 46 6.1 ESE 28 37 15 20 1023.3 - 0.0
14/12:30pm 18.0 12.1 7.7 51 5.3 SE 28 35 15 19 1023.7 - 0.0
14/12:00pm 16.7 11.7 7.9 56 4.5 SE 24 33 13 18 1024.3 1024.1 0.0
14/11:30am 16.7 10.5 7.9 56 4.5 SE 30 37 16 20 1024.5 - 0.0
14/11:00am 17.6 12.3 8.5 55 4.7 ESE 26 35 14 19 1024.6 - 0.0

Other Formats:

Comma delimited format used in spreadsheet applications
http://www.bom.gov.au/fwo/IDV60801/IDV60801.94829.axf

JavaScript Object Notation format (JSON) in row-major order
http://www.bom.gov.au/fwo/IDV60801/IDV60801.94829.json